createdAt,value
2022-10-18T00:01:52.249Z,34.97
2022-10-18T00:04:18.719Z,45.35
2022-10-18T00:06:45.253Z,33.95
2022-10-18T00:09:12.053Z,23.27
2022-10-18T00:11:38.897Z,40.15
2022-10-18T00:14:05.422Z,59.92
2022-10-18T00:16:31.857Z,45.15
2022-10-18T00:18:58.356Z,63.45
2022-10-18T00:21:25.576Z,67.25
2022-10-18T00:23:52.806Z,60.50
2022-10-18T00:26:20.284Z,51.10
2022-10-18T00:28:47.288Z,100.13
2022-10-18T00:31:15.774Z,65.90
2022-10-18T00:33:43.470Z,80.40
2022-10-18T00:36:10.465Z,46.88
2022-10-18T00:38:37.172Z,59.35
2022-10-18T00:41:03.884Z,44.90
2022-10-18T00:43:30.396Z,71.40
2022-10-18T00:45:56.869Z,60.25
2022-10-18T00:48:23.712Z,48.15
2022-10-18T00:50:51.929Z,30.38
2022-10-18T00:53:19.490Z,91.40
2022-10-18T00:55:46.561Z,57.10
2022-10-18T00:58:14.078Z,68.15
2022-10-18T01:00:41.727Z,43.30
2022-10-18T01:03:08.656Z,100.28
2022-10-18T01:05:41.367Z,50.88
2022-10-18T01:08:14.503Z,66.38
2022-10-18T01:10:47.169Z,61.90
2022-10-18T01:13:16.755Z,46.55
2022-10-18T01:18:32.886Z,58.45
2022-10-18T01:21:05.614Z,75.63
2022-10-18T01:23:40.835Z,38.97
2022-10-18T01:26:07.245Z,29.02
2022-10-18T01:28:36.772Z,80.03
2022-10-18T01:31:04.852Z,52.40
2022-10-18T01:33:40.668Z,33.88
2022-10-18T01:36:19.678Z,55.67
2022-10-18T01:38:47.135Z,74.20
2022-10-18T01:41:15.829Z,82.85
2022-10-18T01:43:43.578Z,51.80
2022-10-18T01:46:11.852Z,56.80
2022-10-18T01:48:38.402Z,33.83
2022-10-18T01:51:05.532Z,68.90
2022-10-18T01:53:34.194Z,55.83
2022-10-18T01:56:19.369Z,82.75
2022-10-18T01:58:48.760Z,58.85
2022-10-18T02:01:20.602Z,42.95
2022-10-18T02:03:47.760Z,67.95
2022-10-18T02:06:22.620Z,43.38
2022-10-18T02:08:56.398Z,73.75
2022-10-18T02:11:22.882Z,76.35
2022-10-18T02:13:53.239Z,102.97
2022-10-18T02:16:21.596Z,75.93
2022-10-18T02:18:58.909Z,37.38
2022-10-18T02:21:25.681Z,47.05
2022-10-18T02:23:52.474Z,66.75
2022-10-18T02:26:18.901Z,59.53
2022-10-18T02:28:45.708Z,39.97
2022-10-18T02:31:27.157Z,58.35
2022-10-18T02:34:07.311Z,80.40
2022-10-18T02:36:37.015Z,60.30
2022-10-18T02:39:11.590Z,49.83
2022-10-18T02:41:38.067Z,78.53
2022-10-18T02:44:04.598Z,40.45
2022-10-18T02:46:31.075Z,24.40
2022-10-18T02:48:57.523Z,60.45
2022-10-18T02:51:24.822Z,63.97
2022-10-18T02:53:51.275Z,99.95
2022-10-18T02:56:17.725Z,107.40
2022-10-18T02:58:44.157Z,58.33
2022-10-18T03:01:10.690Z,51.85
2022-10-18T03:03:37.246Z,58.35
2022-10-18T03:06:03.780Z,55.75
2022-10-18T03:08:30.223Z,38.83
2022-10-18T03:10:56.750Z,72.28
2022-10-18T03:13:23.251Z,89.25
2022-10-18T03:15:49.775Z,68.32
2022-10-18T03:18:16.223Z,67.70
2022-10-18T03:20:42.649Z,66.15
2022-10-18T03:23:09.099Z,67.53
2022-10-18T03:25:35.581Z,56.80
2022-10-18T03:28:02.128Z,51.55
2022-10-18T03:30:28.703Z,55.70
2022-10-18T03:32:55.333Z,52.55
2022-10-18T03:35:22.347Z,31.05
2022-10-18T03:37:49.307Z,51.15
2022-10-18T03:40:15.817Z,82.75
2022-10-18T03:42:42.447Z,42.47
2022-10-18T03:45:09.328Z,131.57
2022-10-18T03:47:35.739Z,137.68
2022-10-18T03:50:02.169Z,136.05
2022-10-18T03:52:28.818Z,123.40
2022-10-18T03:54:55.374Z,141.13
2022-10-18T03:57:21.821Z,43.92
2022-10-18T03:59:48.852Z,39.83
2022-10-18T04:02:15.336Z,46.97
2022-10-18T04:04:41.801Z,92.70
2022-10-18T04:07:08.260Z,161.60
2022-10-18T04:09:34.860Z,144.18
2022-10-18T04:12:01.298Z,106.63
2022-10-18T04:14:27.720Z,66.90
2022-10-18T04:16:54.371Z,53.25
2022-10-18T04:19:20.861Z,98.22
2022-10-18T04:21:47.382Z,120.55
2022-10-18T04:24:13.849Z,79.60
2022-10-18T04:26:40.287Z,100.07
2022-10-18T04:29:06.921Z,98.65
2022-10-18T04:31:33.360Z,159.32
2022-10-18T04:34:00.107Z,106.47
2022-10-18T04:36:26.707Z,101.70
2022-10-18T04:38:53.177Z,107.95
2022-10-18T04:41:19.624Z,110.53
2022-10-18T04:46:17.531Z,127.93
2022-10-18T04:48:43.958Z,101.93
2022-10-18T04:51:10.437Z,169.32
2022-10-18T04:53:36.927Z,234.55
2022-10-18T04:56:03.408Z,177.60
2022-10-18T04:58:29.838Z,183.10
2022-10-18T05:00:56.301Z,85.40
2022-10-18T05:03:22.781Z,215.95
2022-10-18T05:06:01.466Z,137.88
2022-10-18T05:08:29.121Z,203.32
2022-10-18T05:10:55.740Z,194.73
2022-10-18T05:13:22.315Z,222.80
2022-10-18T05:15:48.857Z,106.15
2022-10-18T05:18:15.455Z,114.30
2022-10-18T05:20:42.044Z,59.00
2022-10-18T05:23:12.977Z,104.03
2022-10-18T05:25:40.015Z,141.55
2022-10-18T05:28:10.944Z,94.57
2022-10-18T05:30:42.598Z,138.98
2022-10-18T05:33:12.431Z,69.10
2022-10-18T05:35:39.197Z,89.82
2022-10-18T05:38:06.268Z,116.03
2022-10-18T05:40:33.198Z,168.07
2022-10-18T05:42:59.716Z,102.15
2022-10-18T05:45:27.420Z,174.32
2022-10-18T05:47:54.683Z,83.35
2022-10-18T05:50:21.263Z,59.15
2022-10-18T05:52:47.841Z,87.22
2022-10-18T05:55:14.586Z,82.47
2022-10-18T05:57:41.124Z,58.70
2022-10-18T06:00:08.122Z,83.20
2022-10-18T06:02:43.799Z,138.57
2022-10-18T06:05:10.435Z,192.70
2022-10-18T06:07:36.950Z,154.88
2022-10-18T06:10:03.628Z,183.98
2022-10-18T06:12:30.067Z,230.15
2022-10-18T06:14:56.514Z,199.65
2022-10-18T06:17:22.984Z,212.20
2022-10-18T06:19:49.593Z,100.53
2022-10-18T06:22:16.076Z,101.75
2022-10-18T06:24:42.842Z,76.05
2022-10-18T06:27:12.322Z,106.65
2022-10-18T06:29:39.263Z,138.70
2022-10-18T06:32:07.730Z,117.93
2022-10-18T06:37:39.813Z,285.13
2022-10-18T06:40:06.712Z,254.75
2022-10-18T06:42:33.466Z,178.43
2022-10-18T06:45:00.654Z,241.88
2022-10-18T06:47:27.070Z,221.68
2022-10-18T06:49:53.557Z,137.65
2022-10-18T06:52:22.562Z,308.30
2022-10-18T06:54:49.014Z,223.88
2022-10-18T06:57:15.388Z,294.60
2022-10-18T06:59:41.891Z,170.77
2022-10-18T07:02:09.271Z,297.58
2022-10-18T07:04:35.845Z,264.83
2022-10-18T07:07:02.921Z,422.88
2022-10-18T07:09:30.085Z,338.33
2022-10-18T07:11:58.199Z,251.57
2022-10-18T07:14:29.057Z,287.42
2022-10-18T07:17:02.848Z,308.58
2022-10-18T07:19:30.301Z,304.77
2022-10-18T07:21:59.963Z,411.10
2022-10-18T07:24:26.657Z,377.60
2022-10-18T07:26:53.702Z,364.23
2022-10-18T07:29:20.112Z,391.83
2022-10-18T07:31:46.811Z,262.77
2022-10-18T07:34:13.910Z,355.83
2022-10-18T07:36:40.584Z,166.80
2022-10-18T07:39:07.188Z,134.50
2022-10-18T07:41:34.248Z,303.58
2022-10-18T07:44:01.038Z,302.73
2022-10-18T07:46:27.622Z,347.67
2022-10-18T07:48:54.702Z,372.73
2022-10-18T07:51:22.318Z,423.80
2022-10-18T07:53:48.944Z,443.08
2022-10-18T07:56:16.752Z,441.25
2022-10-18T07:58:43.894Z,314.67
2022-10-18T08:01:10.500Z,416.67
2022-10-18T08:03:37.473Z,199.73
2022-10-18T08:06:04.577Z,291.98
2022-10-18T08:08:31.883Z,313.50
2022-10-18T08:11:02.717Z,309.33
2022-10-18T08:13:31.907Z,498.13
2022-10-18T08:16:02.219Z,526.90
2022-10-18T08:18:29.132Z,422.15
2022-10-18T08:20:55.958Z,221.73
2022-10-18T08:23:22.345Z,411.02
2022-10-18T08:25:49.130Z,567.35
2022-10-18T08:28:17.281Z,517.88
2022-10-18T08:30:43.801Z,466.73
2022-10-18T08:33:10.223Z,336.90
2022-10-18T08:35:36.725Z,547.38
2022-10-18T08:38:03.163Z,455.75
2022-10-18T08:40:44.087Z,551.80
2022-10-18T08:43:21.799Z,349.65
2022-10-18T08:45:53.793Z,512.00
2022-10-18T08:48:31.316Z,403.00
2022-10-18T08:50:59.555Z,488.10
2022-10-18T08:53:36.218Z,362.55
2022-10-18T08:56:15.553Z,518.30
2022-10-18T08:58:44.703Z,513.08
2022-10-18T09:01:31.233Z,324.67
2022-10-18T09:04:08.482Z,510.77
2022-10-18T09:06:48.974Z,208.43
2022-10-18T09:09:34.542Z,398.52
2022-10-18T09:12:21.281Z,323.02
2022-10-18T09:14:57.133Z,395.90
2022-10-18T09:17:29.814Z,463.48
2022-10-18T09:20:16.739Z,523.72
2022-10-18T09:23:05.349Z,414.40
2022-10-18T09:25:35.423Z,435.73
2022-10-18T09:28:20.951Z,646.92
2022-10-18T09:30:58.752Z,543.63
2022-10-18T09:33:29.931Z,325.63
2022-10-18T09:36:01.825Z,313.70
2022-10-18T09:38:31.300Z,420.13
2022-10-18T09:41:03.682Z,238.85
2022-10-18T09:43:45.846Z,336.27
2022-10-18T09:46:13.468Z,453.98
2022-10-18T09:48:46.604Z,496.40
2022-10-18T09:51:22.026Z,626.13
2022-10-18T09:53:51.506Z,553.05
2022-10-18T09:56:22.429Z,515.75
2022-10-18T09:58:49.731Z,476.55
2022-10-18T10:01:18.250Z,510.63
2022-10-18T10:03:44.710Z,545.22
2022-10-18T10:06:15.097Z,223.23
2022-10-18T10:08:42.351Z,530.67
2022-10-18T10:11:27.474Z,536.60
2022-10-18T10:13:57.815Z,356.08
2022-10-18T10:16:26.736Z,363.50
2022-10-18T10:18:54.245Z,328.15
2022-10-18T10:21:21.735Z,322.25
2022-10-18T10:23:53.148Z,359.23
2022-10-18T10:26:23.239Z,260.25
2022-10-18T10:28:49.969Z,265.48
2022-10-18T10:31:19.686Z,640.47
2022-10-18T10:33:47.523Z,471.35
2022-10-18T10:36:18.297Z,221.65
2022-10-18T10:38:45.184Z,472.90
2022-10-18T10:41:30.186Z,340.00
2022-10-18T10:43:56.701Z,217.70
2022-10-18T10:46:23.437Z,584.60
2022-10-18T10:48:56.320Z,447.00
2022-10-18T10:51:38.806Z,552.33
2022-10-18T10:54:11.375Z,287.10
2022-10-18T10:56:50.332Z,334.65
2022-10-18T10:59:18.633Z,369.02
2022-10-18T11:01:45.364Z,560.33
2022-10-18T11:04:26.239Z,329.55
2022-10-18T11:07:06.682Z,405.50
2022-10-18T11:09:40.332Z,459.05
2022-10-18T11:12:14.621Z,268.92
2022-10-18T11:14:42.994Z,487.45
2022-10-18T11:17:44.775Z,192.55
2022-10-18T11:20:15.080Z,202.82
2022-10-18T11:22:51.792Z,410.80
2022-10-18T11:25:19.594Z,332.50
2022-10-18T11:27:55.074Z,278.92
2022-10-18T11:30:29.407Z,256.73
2022-10-18T11:32:55.809Z,288.85
2022-10-18T11:35:35.529Z,436.60
2022-10-18T11:38:06.106Z,212.60
2022-10-18T11:40:42.552Z,221.85
2022-10-18T11:43:15.313Z,268.90
2022-10-18T11:45:41.673Z,196.60
2022-10-18T11:48:26.911Z,337.17
2022-10-18T11:51:04.713Z,139.68
2022-10-18T11:54:00.863Z,89.88
2022-10-18T11:56:30.393Z,109.07
2022-10-18T11:59:02.429Z,99.57
2022-10-18T12:01:28.950Z,167.98
2022-10-18T12:04:14.223Z,64.70
2022-10-18T12:06:42.049Z,89.57
2022-10-18T12:09:14.538Z,114.00
2022-10-18T12:11:46.899Z,72.88
2022-10-18T12:14:25.680Z,40.70
2022-10-18T12:17:02.082Z,58.38
2022-10-18T12:19:39.724Z,52.67
2022-10-18T12:22:13.564Z,49.75
2022-10-18T12:24:40.581Z,63.03
2022-10-18T12:27:11.580Z,67.05
2022-10-18T12:29:56.440Z,54.60
2022-10-18T12:32:26.838Z,58.90
2022-10-18T12:34:56.805Z,47.97
2022-10-18T12:37:42.212Z,75.65
2022-10-18T12:40:18.511Z,53.22
2022-10-18T12:42:49.435Z,103.15
2022-10-18T12:45:26.911Z,74.75
2022-10-18T12:47:53.524Z,78.57
2022-10-18T12:50:26.770Z,47.67
2022-10-18T12:53:02.506Z,53.55
2022-10-18T12:55:31.031Z,43.28
2022-10-18T12:57:57.538Z,34.28
2022-10-18T13:00:29.819Z,42.17
2022-10-18T13:03:18.000Z,50.13
2022-10-18T13:05:56.015Z,45.80
2022-10-18T13:08:30.075Z,51.50
2022-10-18T13:10:59.551Z,48.30
2022-10-18T13:13:39.764Z,40.42
2022-10-18T13:16:33.528Z,34.67
2022-10-18T13:19:09.209Z,35.65
2022-10-18T13:21:41.860Z,47.25
2022-10-18T13:24:17.559Z,40.65
2022-10-18T13:26:46.960Z,34.90
2022-10-18T13:29:13.426Z,34.15
2022-10-18T13:31:43.482Z,40.67
2022-10-18T13:34:17.579Z,39.47
2022-10-18T13:36:44.002Z,33.92
2022-10-18T13:39:19.117Z,34.70
2022-10-18T13:41:45.497Z,23.77
2022-10-18T13:44:33.289Z,32.55
2022-10-18T13:46:59.696Z,27.00
2022-10-18T13:49:38.298Z,24.90
2022-10-18T13:52:04.686Z,27.85
2022-10-18T13:54:43.327Z,26.98
2022-10-18T13:57:25.364Z,33.00
2022-10-18T14:00:10.690Z,29.60
2022-10-18T14:02:51.551Z,36.33
2022-10-18T14:05:25.476Z,33.42
2022-10-18T14:07:56.736Z,30.50
2022-10-18T14:10:43.368Z,32.90
2022-10-18T14:13:17.322Z,16.60
2022-10-18T14:15:44.828Z,28.55
2022-10-18T14:18:14.302Z,27.88
2022-10-18T14:21:01.354Z,47.42
2022-10-18T14:23:35.619Z,37.00
2022-10-18T14:26:09.409Z,17.35
2022-10-18T14:28:55.115Z,24.73
2022-10-18T14:31:22.291Z,20.80
2022-10-18T14:33:58.039Z,23.92
2022-10-18T14:36:27.176Z,24.13
2022-10-18T14:38:58.242Z,17.58
2022-10-18T14:41:24.900Z,28.10
2022-10-18T14:43:52.358Z,30.98
2022-10-18T14:46:18.748Z,36.50
2022-10-18T14:48:54.000Z,23.50
2022-10-18T14:51:20.614Z,17.45
2022-10-18T14:53:47.770Z,24.30
2022-10-18T14:56:25.629Z,23.92
2022-10-18T14:58:52.816Z,22.13
2022-10-18T15:01:20.447Z,15.93
2022-10-18T15:03:47.274Z,21.27
2022-10-18T15:06:19.058Z,19.65
2022-10-18T15:08:47.651Z,19.70
2022-10-18T15:11:14.879Z,29.13
2022-10-18T15:13:55.266Z,22.55
2022-10-18T15:16:23.492Z,17.88
2022-10-18T15:19:26.553Z,14.70
2022-10-18T15:21:59.187Z,27.55
2022-10-18T15:24:36.664Z,22.30
2022-10-18T15:27:22.547Z,15.02
2022-10-18T15:29:49.121Z,19.70
2022-10-18T15:32:15.495Z,18.90
2022-10-18T15:34:41.992Z,16.58
2022-10-18T15:37:27.679Z,21.05
2022-10-18T15:40:12.836Z,20.15
2022-10-18T15:42:39.343Z,13.80
2022-10-18T15:45:27.982Z,14.68
2022-10-18T15:48:00.702Z,33.30
2022-10-18T15:50:47.704Z,18.95
2022-10-18T15:53:20.206Z,12.35
2022-10-18T15:55:52.172Z,16.45
2022-10-18T15:58:24.084Z,19.73
2022-10-18T16:00:51.541Z,25.90
2022-10-18T16:03:19.108Z,37.58
2022-10-18T16:05:45.687Z,18.15
2022-10-18T16:08:25.229Z,14.90
2022-10-18T16:10:51.966Z,13.55
2022-10-18T16:13:18.442Z,15.50
2022-10-18T16:15:44.884Z,14.52
2022-10-18T16:18:14.223Z,18.20
2022-10-18T16:20:41.199Z,12.63
2022-10-18T16:23:22.190Z,24.85
2022-10-18T16:25:49.002Z,19.98
2022-10-18T16:28:20.555Z,18.85
2022-10-18T16:30:54.665Z,11.55
2022-10-18T16:33:21.728Z,12.63
2022-10-18T16:35:48.474Z,12.32
2022-10-18T16:38:35.548Z,13.70
2022-10-18T16:41:05.953Z,11.98
2022-10-18T16:43:33.064Z,15.65
2022-10-18T16:45:59.662Z,10.80
2022-10-18T16:48:26.076Z,11.18
2022-10-18T16:50:53.683Z,11.02
2022-10-18T16:53:23.299Z,13.77
2022-10-18T16:55:54.494Z,15.38
2022-10-18T17:00:50.650Z,16.80
2022-10-18T17:03:17.379Z,13.82
2022-10-18T17:05:43.992Z,19.15
2022-10-18T17:08:21.292Z,11.65
2022-10-18T17:10:49.747Z,14.00
2022-10-18T17:13:16.615Z,16.73
2022-10-18T17:15:43.132Z,11.70
2022-10-18T17:18:13.658Z,11.88
2022-10-18T17:20:40.747Z,17.13
2022-10-18T17:23:08.795Z,18.23
2022-10-18T17:25:42.811Z,14.25
2022-10-18T17:28:18.751Z,18.20
2022-10-18T17:30:45.531Z,15.68
2022-10-18T17:33:13.262Z,16.73
2022-10-18T17:35:40.187Z,16.27
2022-10-18T17:38:07.407Z,14.13
2022-10-18T17:40:34.155Z,16.83
2022-10-18T17:43:00.925Z,13.35
2022-10-18T17:45:27.355Z,17.10
2022-10-18T17:47:54.472Z,12.40
2022-10-18T17:50:22.402Z,20.25
2022-10-18T17:52:48.976Z,14.25
2022-10-18T17:55:15.581Z,18.42
2022-10-18T17:57:42.771Z,16.20
2022-10-18T18:00:11.491Z,16.42
2022-10-18T18:02:42.041Z,19.80
2022-10-18T18:05:11.856Z,19.42
2022-10-18T18:07:41.474Z,18.92
2022-10-18T18:10:08.920Z,20.20
2022-10-18T18:12:36.036Z,22.10
2022-10-18T18:15:02.649Z,22.10
2022-10-18T18:17:34.554Z,20.50
2022-10-18T18:20:06.818Z,17.30
2022-10-18T18:22:33.770Z,18.38
2022-10-18T18:25:00.978Z,18.80
2022-10-18T18:27:28.385Z,20.23
2022-10-18T18:29:56.167Z,21.13
2022-10-18T18:32:22.661Z,15.35
2022-10-18T18:34:49.148Z,24.48
2022-10-18T18:37:15.606Z,18.98
2022-10-18T18:39:42.116Z,16.55
2022-10-18T18:42:08.683Z,29.35
2022-10-18T18:44:35.504Z,22.70
2022-10-18T18:47:02.216Z,16.88
2022-10-18T18:49:28.848Z,17.27
2022-10-18T18:51:55.365Z,20.45
2022-10-18T18:54:22.077Z,21.58
2022-10-18T18:56:48.519Z,17.45
2022-10-18T18:59:15.406Z,16.67
2022-10-18T19:01:42.630Z,19.00
2022-10-18T19:04:09.775Z,25.05
2022-10-18T19:06:37.829Z,20.05
2022-10-18T19:09:05.411Z,21.95
2022-10-18T19:11:33.066Z,18.48
2022-10-18T19:14:00.068Z,21.67
2022-10-18T19:16:27.673Z,17.65
2022-10-18T19:18:58.675Z,17.60
2022-10-18T19:21:26.685Z,15.35
2022-10-18T19:23:53.499Z,24.10
2022-10-18T19:26:25.177Z,24.02
2022-10-18T19:28:51.638Z,18.27
2022-10-18T19:31:18.159Z,15.65
2022-10-18T19:33:55.650Z,20.90
2022-10-18T19:36:25.512Z,21.67
2022-10-18T19:38:51.968Z,15.45
2022-10-18T19:41:18.459Z,15.57
2022-10-18T19:43:45.031Z,14.35
2022-10-18T19:46:11.531Z,21.90
2022-10-18T19:48:38.033Z,16.42
2022-10-18T19:51:06.405Z,15.65
2022-10-18T19:53:34.702Z,14.05
2022-10-18T19:56:02.479Z,17.00
2022-10-18T19:58:29.002Z,19.08
2022-10-18T20:00:56.009Z,18.08
2022-10-18T20:03:23.392Z,15.95
2022-10-18T20:05:56.681Z,20.58
2022-10-18T20:08:23.981Z,14.40
2022-10-18T20:10:50.484Z,26.95
2022-10-18T20:13:16.968Z,22.05
2022-10-18T20:15:43.456Z,21.25
2022-10-18T20:18:09.899Z,15.93
2022-10-18T20:20:36.938Z,18.15
2022-10-18T20:23:03.621Z,17.45
2022-10-18T20:25:30.004Z,14.50
2022-10-18T20:27:56.409Z,14.60
2022-10-18T20:30:22.797Z,14.48
2022-10-18T20:32:51.168Z,21.05
2022-10-18T20:35:17.594Z,12.43
2022-10-18T20:37:43.987Z,14.43
2022-10-18T20:40:10.863Z,13.80
2022-10-18T20:42:37.292Z,18.45
2022-10-18T20:47:30.312Z,16.13
2022-10-18T20:49:56.999Z,15.30
2022-10-18T20:52:23.341Z,15.43
2022-10-18T20:54:49.728Z,17.92
2022-10-18T20:57:16.157Z,20.20
2022-10-18T20:59:42.585Z,14.45
2022-10-18T21:02:11.608Z,14.77
2022-10-18T21:04:41.415Z,16.17
2022-10-18T21:07:08.789Z,18.20
2022-10-18T21:09:35.184Z,13.98
2022-10-18T21:12:01.618Z,11.95
2022-10-18T21:14:28.078Z,15.63
2022-10-18T21:16:54.582Z,19.63
2022-10-18T21:19:22.278Z,13.95
2022-10-18T21:21:50.421Z,15.45
2022-10-18T21:24:17.729Z,14.30
2022-10-18T21:26:44.645Z,10.45
2022-10-18T21:29:11.821Z,18.55
2022-10-18T21:31:39.342Z,13.43
2022-10-18T21:34:07.136Z,14.02
2022-10-18T21:36:34.747Z,10.27
2022-10-18T21:39:02.195Z,11.15
2022-10-18T21:41:28.610Z,11.70
2022-10-18T21:43:55.320Z,12.35
2022-10-18T21:46:22.847Z,19.73
2022-10-18T21:48:50.522Z,21.35
2022-10-18T21:51:18.024Z,17.58
2022-10-18T21:53:45.459Z,16.02
2022-10-18T21:56:13.392Z,15.70
2022-10-18T21:58:40.267Z,15.73
2022-10-18T22:01:08.068Z,13.48
2022-10-18T22:03:34.758Z,13.45
2022-10-18T22:06:02.116Z,16.05
2022-10-18T22:08:28.977Z,17.48
2022-10-18T22:10:56.881Z,12.73
2022-10-18T22:13:23.592Z,12.68
2022-10-18T22:15:50.013Z,22.88
2022-10-18T22:18:16.843Z,14.88
2022-10-18T22:20:43.283Z,20.75
2022-10-18T22:23:12.446Z,10.63
2022-10-18T22:25:38.817Z,11.98
2022-10-18T22:28:05.273Z,13.85
2022-10-18T22:30:31.656Z,13.88
2022-10-18T22:32:58.057Z,14.10
2022-10-18T22:35:24.545Z,15.80
2022-10-18T22:37:53.564Z,16.70
2022-10-18T22:40:19.941Z,17.55
2022-10-18T22:42:46.367Z,12.02
2022-10-18T22:45:12.805Z,10.90
2022-10-18T22:47:39.195Z,14.05
2022-10-18T22:50:05.781Z,17.05
2022-10-18T22:52:32.442Z,13.57
2022-10-18T22:54:59.133Z,16.00
2022-10-18T22:57:28.548Z,15.48
2022-10-18T22:59:54.962Z,12.98
2022-10-18T23:02:21.529Z,18.70
2022-10-18T23:04:47.963Z,19.48
2022-10-18T23:07:14.397Z,14.23
2022-10-18T23:12:12.354Z,29.40
2022-10-18T23:14:38.758Z,24.33
2022-10-18T23:17:05.195Z,84.55
2022-10-18T23:19:31.576Z,52.55
2022-10-18T23:21:57.997Z,52.90
2022-10-18T23:24:24.489Z,28.25
2022-10-18T23:26:50.880Z,83.85
2022-10-18T23:29:17.481Z,24.33
2022-10-18T23:31:43.954Z,11.32
2022-10-18T23:34:10.405Z,21.25
2022-10-18T23:36:36.833Z,13.25
2022-10-18T23:39:03.837Z,10.38
2022-10-18T23:41:30.442Z,111.68
2022-10-18T23:43:56.903Z,19.08
2022-10-18T23:46:23.725Z,15.20
2022-10-18T23:48:50.322Z,12.50
2022-10-18T23:51:17.324Z,13.02
2022-10-18T23:53:44.061Z,13.70
2022-10-18T23:56:12.071Z,18.05
2022-10-18T23:58:39.151Z,17.27
